createdAt,value
2018-08-11T00:01:22.159Z,5.28
2018-08-11T00:03:50.338Z,6.17
2018-08-11T00:06:18.606Z,4.50
2018-08-11T00:08:46.849Z,4.42
2018-08-11T00:11:15.287Z,5.20
2018-08-11T00:13:43.375Z,3.37
2018-08-11T00:16:11.556Z,2.77
2018-08-11T00:18:39.679Z,2.33
2018-08-11T00:21:07.777Z,5.00
2018-08-11T00:23:35.858Z,2.93
2018-08-11T00:26:03.997Z,3.33
2018-08-11T00:28:32.075Z,3.90
2018-08-11T00:31:00.189Z,3.72
2018-08-11T00:33:28.234Z,5.22
2018-08-11T00:35:56.347Z,5.90
2018-08-11T00:38:24.419Z,3.63
2018-08-11T00:40:52.565Z,5.40
2018-08-11T00:43:20.728Z,2.97
2018-08-11T00:45:48.993Z,2.20
2018-08-11T00:48:17.065Z,3.27
2018-08-11T00:50:45.175Z,2.90
2018-08-11T00:53:13.253Z,4.33
2018-08-11T00:55:41.375Z,4.40
2018-08-11T00:58:09.442Z,3.07
2018-08-11T01:00:37.744Z,4.37
2018-08-11T01:03:06.092Z,4.73
2018-08-11T01:05:34.257Z,4.40
2018-08-11T01:08:02.346Z,3.57
2018-08-11T01:10:30.411Z,3.83
2018-08-11T01:12:58.495Z,4.33
2018-08-11T01:15:26.566Z,3.37
2018-08-11T01:17:54.678Z,5.37
2018-08-11T01:20:22.814Z,3.60
2018-08-11T01:22:51.058Z,4.60
2018-08-11T01:25:19.123Z,6.07
2018-08-11T01:27:47.238Z,7.03
2018-08-11T01:30:18.756Z,4.13
2018-08-11T01:32:46.843Z,6.87
2018-08-11T01:35:14.919Z,4.00
2018-08-11T01:37:43.923Z,5.23
2018-08-11T01:40:13.272Z,4.77
2018-08-11T01:42:42.464Z,7.23
2018-08-11T01:45:11.504Z,5.37
2018-08-11T01:47:40.107Z,6.87
2018-08-11T01:50:09.507Z,6.20
2018-08-11T01:52:37.933Z,6.17
2018-08-11T01:55:06.040Z,9.13
2018-08-11T01:57:34.147Z,6.60
2018-08-11T02:00:02.232Z,6.87
2018-08-11T02:02:30.383Z,7.23
2018-08-11T02:04:58.415Z,9.30
2018-08-11T02:07:26.479Z,6.33
2018-08-11T02:09:54.577Z,6.13
2018-08-11T02:12:22.618Z,6.53
2018-08-11T02:14:50.702Z,7.60
2018-08-11T02:17:18.763Z,5.17
2018-08-11T02:19:46.931Z,5.83
2018-08-11T02:22:14.988Z,5.87
2018-08-11T02:24:43.058Z,4.60
2018-08-11T02:27:11.263Z,3.70
2018-08-11T02:29:39.434Z,3.30
2018-08-11T02:32:07.512Z,3.67
2018-08-11T02:34:35.608Z,4.03
2018-08-11T02:37:03.707Z,6.57
2018-08-11T02:39:31.797Z,7.43
2018-08-11T02:41:59.852Z,6.23
2018-08-11T02:44:28.227Z,5.70
2018-08-11T02:46:56.327Z,5.13
2018-08-11T02:49:24.455Z,4.80
2018-08-11T02:51:53.091Z,5.90
2018-08-11T02:54:21.212Z,4.23
2018-08-11T02:56:49.418Z,3.97
2018-08-11T02:59:22.056Z,3.40
2018-08-11T03:01:50.240Z,4.03
2018-08-11T03:04:18.387Z,3.97
2018-08-11T03:06:46.712Z,3.80
2018-08-11T03:09:14.796Z,4.33
2018-08-11T03:11:42.934Z,4.33
2018-08-11T03:14:11.145Z,4.50
2018-08-11T03:16:39.111Z,4.43
2018-08-11T03:19:07.491Z,4.70
2018-08-11T03:21:35.561Z,5.43
2018-08-11T03:24:03.728Z,4.10
2018-08-11T03:26:31.835Z,5.10
2018-08-11T03:28:59.916Z,4.30
2018-08-11T03:31:28.007Z,3.97
2018-08-11T03:33:56.108Z,3.50
2018-08-11T03:36:24.260Z,2.90
2018-08-11T03:38:52.513Z,2.93
2018-08-11T03:41:20.674Z,3.97
2018-08-11T03:43:48.831Z,3.70
2018-08-11T03:46:16.898Z,5.40
2018-08-11T03:48:45.228Z,4.97
2018-08-11T03:51:13.288Z,3.27
2018-08-11T03:53:41.361Z,3.07
2018-08-11T03:56:09.454Z,2.83
2018-08-11T03:58:37.518Z,2.63
2018-08-11T04:01:05.627Z,2.07
2018-08-11T04:03:33.775Z,2.30
2018-08-11T04:06:01.854Z,3.00
2018-08-11T04:08:29.927Z,2.50
2018-08-11T04:10:58.072Z,3.90
2018-08-11T04:13:26.179Z,2.40
2018-08-11T04:15:54.263Z,2.60
2018-08-11T04:18:22.326Z,2.20
2018-08-11T04:20:50.423Z,2.00
2018-08-11T04:23:18.492Z,2.67
2018-08-11T04:25:46.600Z,3.23
2018-08-11T04:28:15.007Z,3.13
2018-08-11T04:30:43.063Z,3.20
2018-08-11T04:33:11.138Z,1.70
2018-08-11T04:35:39.255Z,2.33
2018-08-11T04:38:07.469Z,3.43
2018-08-11T04:40:35.519Z,1.53
2018-08-11T04:43:03.595Z,1.90
2018-08-11T04:45:31.920Z,2.10
2018-08-11T04:47:59.975Z,1.60
2018-08-11T04:50:28.052Z,2.07
2018-08-11T04:52:56.108Z,3.50
2018-08-11T04:55:24.194Z,3.70
2018-08-11T04:57:52.340Z,4.47
2018-08-11T05:00:20.443Z,4.67
2018-08-11T05:02:48.670Z,5.17
2018-08-11T05:05:17.049Z,5.03
2018-08-11T05:07:45.135Z,4.10
2018-08-11T05:10:13.175Z,5.03
2018-08-11T05:12:41.248Z,3.93
2018-08-11T05:15:09.447Z,3.67
2018-08-11T05:17:37.511Z,4.00
2018-08-11T05:20:05.579Z,3.53
2018-08-11T05:22:33.640Z,5.07
2018-08-11T05:25:01.709Z,3.93
2018-08-11T05:27:29.757Z,3.92
2018-08-11T05:29:57.831Z,4.70
2018-08-11T05:32:26.239Z,5.15
2018-08-11T05:34:55.040Z,3.60
2018-08-11T05:37:23.098Z,4.70
2018-08-11T05:39:51.438Z,3.55
2018-08-11T05:42:19.479Z,5.75
2018-08-11T05:44:47.540Z,4.72
2018-08-11T05:47:15.604Z,4.10
2018-08-11T05:49:43.639Z,4.25
2018-08-11T05:52:11.699Z,5.03
2018-08-11T05:54:39.792Z,5.30
2018-08-11T05:57:07.847Z,7.10
2018-08-11T05:59:35.896Z,5.95
2018-08-11T06:02:04.009Z,7.80
2018-08-11T06:04:32.105Z,6.93
2018-08-11T06:07:00.158Z,6.85
2018-08-11T06:09:28.220Z,7.97
2018-08-11T06:11:56.275Z,8.43
2018-08-11T06:14:24.354Z,9.00
2018-08-11T06:16:52.415Z,9.93
2018-08-11T06:19:20.490Z,10.40
2018-08-11T06:21:48.615Z,9.97
2018-08-11T06:24:16.675Z,11.10
2018-08-11T06:26:44.734Z,8.90
2018-08-11T06:29:12.807Z,10.30
2018-08-11T06:31:40.885Z,9.53
2018-08-11T06:34:08.961Z,11.40
2018-08-11T06:36:37.023Z,12.00
2018-08-11T06:39:09.213Z,10.83
2018-08-11T06:41:37.351Z,11.65
2018-08-11T06:44:05.455Z,11.60
2018-08-11T06:46:33.557Z,13.43
2018-08-11T06:49:01.644Z,13.33
2018-08-11T06:51:29.756Z,10.90
2018-08-11T06:53:57.860Z,11.47
2018-08-11T06:56:26.250Z,14.07
2018-08-11T06:58:54.310Z,11.67
2018-08-11T07:01:22.355Z,11.67
2018-08-11T07:03:50.637Z,10.33
2018-08-11T07:06:18.699Z,12.25
2018-08-11T07:08:46.774Z,10.93
2018-08-11T07:11:14.884Z,12.37
2018-08-11T07:13:42.932Z,11.10
2018-08-11T07:16:10.990Z,9.90
2018-08-11T07:18:39.085Z,9.13
2018-08-11T07:21:07.243Z,9.68
2018-08-11T07:23:35.343Z,10.25
2018-08-11T07:26:03.403Z,9.30
2018-08-11T07:28:31.448Z,9.33
2018-08-11T07:30:59.515Z,9.30
2018-08-11T07:33:27.568Z,8.25
2018-08-11T07:35:55.952Z,8.08
2018-08-11T07:38:23.970Z,7.60
2018-08-11T07:40:52.072Z,7.58
2018-08-11T07:43:20.427Z,7.58
2018-08-11T07:45:48.595Z,7.80
2018-08-11T07:48:21.280Z,9.23
2018-08-11T07:50:49.316Z,7.97
2018-08-11T07:53:17.455Z,7.20
2018-08-11T07:55:45.590Z,6.72
2018-08-11T07:58:13.659Z,6.85
2018-08-11T08:00:41.723Z,6.47
2018-08-11T08:03:09.756Z,6.80
2018-08-11T08:05:38.109Z,6.08
2018-08-11T08:08:06.207Z,5.30
2018-08-11T08:10:34.788Z,6.47
2018-08-11T08:13:02.880Z,6.25
2018-08-11T08:15:30.943Z,5.60
2018-08-11T08:17:59.292Z,11.35
2018-08-11T08:20:29.824Z,6.47
2018-08-11T08:22:59.909Z,6.33
2018-08-11T08:25:29.357Z,7.75
2018-08-11T08:27:59.158Z,7.30
2018-08-11T08:30:29.246Z,7.03
2018-08-11T08:32:58.550Z,6.72
2018-08-11T08:35:27.887Z,7.00
2018-08-11T08:37:58.706Z,8.45
2018-08-11T08:40:27.397Z,6.87
2018-08-11T08:42:56.366Z,6.53
2018-08-11T08:45:25.067Z,7.58
2018-08-11T08:47:53.948Z,8.70
2018-08-11T08:50:22.692Z,5.58
2018-08-11T08:52:52.721Z,7.42
2018-08-11T08:55:21.532Z,5.72
2018-08-11T08:57:50.374Z,5.97
2018-08-11T09:00:19.861Z,8.43
2018-08-11T09:02:49.025Z,5.15
2018-08-11T09:05:17.162Z,7.65
2018-08-11T09:07:45.422Z,5.10
2018-08-11T09:10:13.491Z,5.72
2018-08-11T09:12:41.537Z,5.67
2018-08-11T09:15:09.604Z,6.78
2018-08-11T09:17:37.637Z,5.25
2018-08-11T09:20:06.152Z,6.15
2018-08-11T09:22:34.239Z,4.95
2018-08-11T09:25:02.293Z,5.40
2018-08-11T09:27:30.385Z,5.87
2018-08-11T09:29:58.426Z,5.45
2018-08-11T09:32:26.482Z,5.40
2018-08-11T09:34:55.642Z,4.25
2018-08-11T09:37:23.745Z,5.22
2018-08-11T09:39:51.809Z,6.67
2018-08-11T09:42:19.920Z,5.10
2018-08-11T09:44:48.054Z,6.55
2018-08-11T09:47:16.150Z,4.45
2018-08-11T09:49:44.306Z,4.30
2018-08-11T09:52:12.413Z,5.80
2018-08-11T09:54:40.675Z,6.30
2018-08-11T09:57:08.759Z,7.12
2018-08-11T09:59:36.823Z,4.47
2018-08-11T10:02:21.185Z,6.10
2018-08-11T10:04:49.275Z,4.87
2018-08-11T10:07:17.400Z,6.37
2018-08-11T10:09:46.805Z,6.95
2018-08-11T10:12:15.505Z,5.08
2018-08-11T10:14:43.608Z,6.00
2018-08-11T10:17:11.670Z,5.03
2018-08-11T10:19:39.816Z,4.80
2018-08-11T10:22:07.895Z,4.90
2018-08-11T10:24:36.104Z,4.85
2018-08-11T10:27:04.156Z,5.80
2018-08-11T10:29:32.300Z,3.55
2018-08-11T10:32:00.423Z,3.92
2018-08-11T10:34:28.485Z,4.30
2018-08-11T10:36:56.627Z,3.90
2018-08-11T10:39:24.731Z,6.15
2018-08-11T10:41:52.772Z,3.55
2018-08-11T10:44:20.860Z,4.03
2018-08-11T10:46:48.930Z,3.35
2018-08-11T10:49:16.987Z,5.60
2018-08-11T10:51:45.108Z,3.15
2018-08-11T10:54:13.172Z,4.97
2018-08-11T10:56:41.426Z,3.20
2018-08-11T10:59:09.620Z,3.87
2018-08-11T11:01:37.683Z,3.72
2018-08-11T11:04:05.752Z,3.15
2018-08-11T11:06:33.880Z,4.10
2018-08-11T11:09:02.049Z,3.92
2018-08-11T11:11:30.535Z,4.47
2018-08-11T11:13:59.149Z,5.80
2018-08-11T11:16:27.265Z,5.65
2018-08-11T11:18:55.440Z,4.95
2018-08-11T11:21:23.731Z,4.10
2018-08-11T11:23:51.932Z,4.12
2018-08-11T11:26:20.096Z,3.83
2018-08-11T11:28:48.188Z,4.05
2018-08-11T11:31:16.240Z,2.40
2018-08-11T11:33:44.360Z,5.80
2018-08-11T11:36:12.429Z,3.72
2018-08-11T11:38:40.627Z,3.20
2018-08-11T11:41:08.735Z,3.75
2018-08-11T11:43:36.845Z,3.58
2018-08-11T11:46:04.953Z,5.75
2018-08-11T11:48:33.112Z,3.00
2018-08-11T11:51:01.180Z,4.53
2018-08-11T11:53:29.304Z,3.80
2018-08-11T11:55:57.528Z,4.10
2018-08-11T11:58:26.493Z,4.12
2018-08-11T12:00:54.571Z,3.25
2018-08-11T12:03:22.784Z,2.50
2018-08-11T12:05:50.936Z,4.67
2018-08-11T12:08:19.084Z,3.45
2018-08-11T12:10:47.152Z,2.27
2018-08-11T12:13:15.851Z,3.60
2018-08-11T12:15:43.902Z,2.67
2018-08-11T12:18:11.964Z,4.47
2018-08-11T12:20:40.182Z,5.95
2018-08-11T12:23:08.267Z,4.72
2018-08-11T12:25:36.690Z,7.10
2018-08-11T12:28:04.756Z,2.67
2018-08-11T12:30:32.833Z,2.62
2018-08-11T12:33:00.928Z,3.45
2018-08-11T12:35:28.984Z,5.55
2018-08-11T12:37:57.129Z,4.28
2018-08-11T12:40:25.216Z,3.75
2018-08-11T12:42:53.369Z,2.95
2018-08-11T12:45:21.553Z,4.53
2018-08-11T12:47:49.687Z,3.02
2018-08-11T12:50:17.885Z,4.85
2018-08-11T12:52:46.024Z,4.80
2018-08-11T12:55:14.084Z,3.58
2018-08-11T12:57:42.182Z,3.30
2018-08-11T13:00:10.772Z,3.55
2018-08-11T13:02:39.152Z,4.03
2018-08-11T13:05:07.313Z,3.70
2018-08-11T13:07:35.427Z,4.45
2018-08-11T13:10:03.555Z,3.77
2018-08-11T13:12:31.929Z,4.87
2018-08-11T13:15:00.308Z,2.12
2018-08-11T13:17:28.378Z,2.90
2018-08-11T13:19:56.500Z,4.67
2018-08-11T13:22:24.619Z,4.45
2018-08-11T13:24:52.724Z,3.52
2018-08-11T13:27:20.809Z,3.17
2018-08-11T13:29:48.852Z,3.92
2018-08-11T13:32:17.307Z,2.12
2018-08-11T13:34:45.355Z,3.80
2018-08-11T13:37:13.439Z,2.98
2018-08-11T13:39:46.754Z,3.00
2018-08-11T13:42:14.831Z,3.08
2018-08-11T13:44:42.887Z,2.20
2018-08-11T13:47:10.975Z,2.35
2018-08-11T13:49:39.059Z,2.95
2018-08-11T13:52:07.151Z,3.87
2018-08-11T13:54:35.266Z,4.03
2018-08-11T13:57:03.414Z,4.70
2018-08-11T13:59:31.485Z,4.75
2018-08-11T14:01:59.535Z,2.47
2018-08-11T14:04:27.607Z,3.60
2018-08-11T14:06:55.734Z,5.85
2018-08-11T14:09:23.804Z,4.00
2018-08-11T14:11:51.979Z,4.97
2018-08-11T14:14:20.075Z,2.95
2018-08-11T14:16:48.197Z,4.05
2018-08-11T14:19:16.291Z,4.15
2018-08-11T14:21:44.340Z,3.77
2018-08-11T14:24:12.389Z,4.28
2018-08-11T14:26:40.480Z,4.00
2018-08-11T14:29:08.539Z,3.10
2018-08-11T14:31:36.959Z,2.98
2018-08-11T14:34:05.025Z,3.45
2018-08-11T14:36:33.092Z,3.70
2018-08-11T14:39:02.199Z,4.67
2018-08-11T14:41:30.244Z,2.30
2018-08-11T14:43:58.291Z,2.77
2018-08-11T14:46:26.381Z,4.45
2018-08-11T14:48:54.779Z,3.55
2018-08-11T14:51:22.844Z,4.60
2018-08-11T14:53:50.894Z,3.37
2018-08-11T14:56:19.111Z,4.12
2018-08-11T14:58:47.135Z,2.70
2018-08-11T15:01:15.212Z,4.58
2018-08-11T15:03:43.509Z,5.42
2018-08-11T15:06:11.777Z,3.00
2018-08-11T15:08:39.855Z,3.45
2018-08-11T15:11:07.975Z,3.98
2018-08-11T15:13:36.256Z,2.15
2018-08-11T15:16:04.384Z,6.53
2018-08-11T15:18:32.624Z,4.28
2018-08-11T15:21:00.725Z,3.35
2018-08-11T15:23:28.800Z,5.17
2018-08-11T15:25:56.868Z,2.75
2018-08-11T15:28:25.368Z,3.85
2018-08-11T15:30:53.481Z,4.28
2018-08-11T15:33:21.571Z,2.52
2018-08-11T15:35:50.023Z,3.40
2018-08-11T15:38:18.184Z,4.15
2018-08-11T15:40:46.302Z,3.27
2018-08-11T15:43:14.395Z,5.00
2018-08-11T15:45:42.462Z,4.58
2018-08-11T15:48:10.547Z,4.65
2018-08-11T15:50:38.603Z,3.77
2018-08-11T15:53:06.780Z,3.65
2018-08-11T15:55:34.838Z,4.53
2018-08-11T15:58:02.924Z,2.87
2018-08-11T16:00:30.978Z,3.62
2018-08-11T16:02:59.484Z,4.10
2018-08-11T16:05:27.611Z,3.92
2018-08-11T16:07:55.755Z,3.35
2018-08-11T16:10:23.815Z,2.92
2018-08-11T16:12:51.950Z,2.22
2018-08-11T16:15:20.071Z,2.72
2018-08-11T16:17:48.319Z,3.08
2018-08-11T16:20:16.392Z,4.35
2018-08-11T16:22:44.525Z,5.10
2018-08-11T16:25:12.595Z,4.08
2018-08-11T16:27:40.663Z,4.15
2018-08-11T16:30:10.111Z,2.42
2018-08-11T16:32:38.423Z,1.65
2018-08-11T16:35:06.539Z,3.05
2018-08-11T16:37:35.015Z,4.33
2018-08-11T16:40:03.404Z,3.47
2018-08-11T16:42:31.468Z,3.12
2018-08-11T16:44:59.586Z,2.05
2018-08-11T16:47:27.690Z,6.15
2018-08-11T16:49:55.831Z,3.70
2018-08-11T16:52:23.938Z,3.47
2018-08-11T16:54:52.195Z,2.33
2018-08-11T16:57:20.537Z,1.82
2018-08-11T16:59:55.488Z,2.30
2018-08-11T17:02:23.698Z,3.30
2018-08-11T17:04:51.807Z,1.65
2018-08-11T17:07:20.117Z,1.72
2018-08-11T17:09:48.279Z,2.60
2018-08-11T17:12:16.433Z,2.62
2018-08-11T17:14:44.520Z,2.08
2018-08-11T17:17:12.709Z,3.17
2018-08-11T17:19:40.748Z,2.17
2018-08-11T17:22:08.787Z,1.77
2018-08-11T17:24:36.847Z,4.55
2018-08-11T17:27:04.963Z,2.50
2018-08-11T17:29:33.109Z,1.70
2018-08-11T17:32:01.213Z,4.65
2018-08-11T17:34:29.258Z,2.80
2018-08-11T17:36:57.632Z,4.22
2018-08-11T17:39:25.759Z,2.65
2018-08-11T17:41:53.844Z,5.12
2018-08-11T17:44:21.937Z,2.58
2018-08-11T17:46:50.273Z,2.87
2018-08-11T17:49:18.397Z,1.70
2018-08-11T17:51:46.504Z,3.30
2018-08-11T17:54:14.804Z,3.40
2018-08-11T17:56:42.875Z,2.37
2018-08-11T17:59:10.929Z,3.77
2018-08-11T18:01:39.390Z,6.20
2018-08-11T18:04:07.492Z,3.45
2018-08-11T18:06:35.578Z,1.92
2018-08-11T18:09:05.913Z,2.47
2018-08-11T18:11:33.983Z,3.02
2018-08-11T18:14:02.148Z,2.77
2018-08-11T18:16:30.241Z,1.70
2018-08-11T18:18:58.341Z,3.05
2018-08-11T18:21:26.474Z,3.45
2018-08-11T18:23:54.561Z,2.92
2018-08-11T18:26:22.615Z,2.52
2018-08-11T18:28:50.694Z,4.40
2018-08-11T18:31:18.785Z,3.02
2018-08-11T18:33:46.862Z,3.17
2018-08-11T18:36:14.924Z,2.77
2018-08-11T18:38:42.985Z,1.98
2018-08-11T18:41:11.160Z,2.70
2018-08-11T18:43:39.213Z,3.42
2018-08-11T18:46:07.287Z,2.72
2018-08-11T18:48:35.401Z,3.72
2018-08-11T18:51:03.922Z,3.50
2018-08-11T18:53:32.662Z,2.25
2018-08-11T18:56:00.961Z,1.50
2018-08-11T18:58:29.612Z,4.45
2018-08-11T19:00:58.078Z,1.47
2018-08-11T19:03:26.261Z,1.72
2018-08-11T19:05:54.343Z,2.92
2018-08-11T19:08:23.229Z,3.02
2018-08-11T19:10:51.527Z,4.55
2018-08-11T19:13:19.630Z,3.33
2018-08-11T19:15:48.097Z,2.55
2018-08-11T19:18:16.365Z,3.15
2018-08-11T19:20:44.982Z,3.30
2018-08-11T19:23:13.047Z,2.47
2018-08-11T19:25:41.223Z,4.37
2018-08-11T19:28:09.331Z,2.70
2018-08-11T19:30:37.404Z,3.08
2018-08-11T19:33:06.356Z,2.30
2018-08-11T19:35:34.490Z,2.62
2018-08-11T19:38:02.675Z,2.37
2018-08-11T19:40:30.784Z,1.92
2018-08-11T19:42:58.975Z,2.62
2018-08-11T19:45:27.473Z,2.70
2018-08-11T19:47:55.641Z,2.75
2018-08-11T19:50:23.793Z,2.85
2018-08-11T19:52:51.998Z,2.62
2018-08-11T19:55:20.181Z,3.10
2018-08-11T19:57:48.286Z,2.55
2018-08-11T20:00:16.389Z,3.35
2018-08-11T20:02:44.471Z,4.20
2018-08-11T20:05:12.864Z,4.08
2018-08-11T20:07:41.487Z,6.25
2018-08-11T20:10:09.568Z,2.47
2018-08-11T20:12:38.260Z,3.37
2018-08-11T20:15:08.217Z,2.60
2018-08-11T20:17:36.303Z,2.77
2018-08-11T20:20:05.864Z,2.70
2018-08-11T20:22:34.361Z,2.63
2018-08-11T20:25:02.600Z,2.73
2018-08-11T20:27:30.801Z,5.77
2018-08-11T20:29:59.192Z,2.92
2018-08-11T20:32:27.257Z,4.17
2018-08-11T20:34:55.360Z,3.47
2018-08-11T20:37:23.857Z,3.83
2018-08-11T20:39:52.212Z,3.03
2018-08-11T20:42:20.452Z,5.93
2018-08-11T20:44:48.672Z,3.93
2018-08-11T20:47:16.964Z,2.90
2018-08-11T20:49:45.068Z,4.70
2018-08-11T20:52:13.124Z,2.70
2018-08-11T20:54:41.203Z,5.50
2018-08-11T20:57:09.747Z,3.30
2018-08-11T20:59:37.867Z,2.70
2018-08-11T21:02:06.192Z,2.87
2018-08-11T21:04:34.431Z,3.43
2018-08-11T21:07:02.538Z,4.13
2018-08-11T21:09:30.634Z,4.37
2018-08-11T21:11:58.711Z,3.73
2018-08-11T21:14:26.787Z,2.87
2018-08-11T21:16:54.878Z,5.93
2018-08-11T21:19:23.447Z,3.20
2018-08-11T21:21:51.553Z,3.43
2018-08-11T21:24:19.719Z,3.27
2018-08-11T21:26:48.048Z,2.97
2018-08-11T21:29:16.117Z,4.00
2018-08-11T21:31:44.206Z,3.53
2018-08-11T21:34:12.248Z,7.87
2018-08-11T21:36:41.263Z,3.03
2018-08-11T21:39:12.053Z,6.93
2018-08-11T21:41:40.228Z,3.37
2018-08-11T21:44:08.752Z,5.37
2018-08-11T21:46:37.409Z,4.90
2018-08-11T21:49:05.928Z,5.47
2018-08-11T21:51:34.049Z,5.37
2018-08-11T21:54:02.143Z,4.00
2018-08-11T21:56:30.316Z,4.40
2018-08-11T21:58:58.363Z,5.00
2018-08-11T22:01:26.485Z,5.53
2018-08-11T22:03:54.907Z,4.97
2018-08-11T22:06:22.976Z,5.50
2018-08-11T22:08:51.113Z,5.63
2018-08-11T22:11:19.219Z,6.43
2018-08-11T22:13:47.317Z,5.53
2018-08-11T22:16:15.425Z,5.37
2018-08-11T22:18:43.540Z,6.77
2018-08-11T22:21:11.638Z,6.60
2018-08-11T22:23:39.709Z,5.73
2018-08-11T22:26:08.163Z,5.50
2018-08-11T22:28:36.274Z,5.13
2018-08-11T22:31:04.325Z,5.07
2018-08-11T22:33:32.698Z,6.73
2018-08-11T22:36:00.865Z,4.40
2018-08-11T22:38:29.057Z,5.30
2018-08-11T22:40:57.150Z,5.47
2018-08-11T22:43:25.514Z,4.83
2018-08-11T22:45:53.618Z,4.20
2018-08-11T22:48:21.748Z,3.87
2018-08-11T22:50:49.871Z,4.27
2018-08-11T22:53:17.991Z,5.40
2018-08-11T22:55:46.084Z,3.47
2018-08-11T22:58:14.314Z,3.67
2018-08-11T23:00:42.424Z,4.03
2018-08-11T23:03:10.505Z,4.80
2018-08-11T23:05:38.601Z,3.97
2018-08-11T23:08:06.856Z,5.07
2018-08-11T23:10:34.924Z,6.27
2018-08-11T23:13:03.017Z,4.37
2018-08-11T23:15:31.110Z,4.03
2018-08-11T23:17:59.201Z,4.60
2018-08-11T23:20:27.308Z,3.40
2018-08-11T23:22:55.427Z,3.70
2018-08-11T23:25:23.487Z,4.13
2018-08-11T23:27:51.557Z,4.03
2018-08-11T23:30:19.644Z,4.87
2018-08-11T23:32:47.738Z,3.93
2018-08-11T23:35:15.837Z,5.50
2018-08-11T23:37:43.907Z,5.43
2018-08-11T23:40:12.407Z,5.97
2018-08-11T23:42:40.737Z,6.90
2018-08-11T23:45:10.875Z,33.93
2018-08-11T23:47:39.827Z,11.97
2018-08-11T23:50:08.562Z,14.53
2018-08-11T23:52:36.664Z,7.17
2018-08-11T23:55:05.545Z,4.77
2018-08-11T23:57:33.886Z,6.80
